sensor_id;sensor_type;location;lat;lon;timestamp;P1;durP1;ratioP1;P2;durP2;ratioP2
73296;SDS011;61524;50.938;11.396;2023-02-12T00:00:14;29.47;;;12.43;;
73296;SDS011;61524;50.938;11.396;2023-02-12T00:02:39;25.20;;;11.88;;
73296;SDS011;61524;50.938;11.396;2023-02-12T00:05:05;30.83;;;12.70;;
73296;SDS011;61524;50.938;11.396;2023-02-12T00:07:30;31.73;;;12.23;;
73296;SDS011;61524;50.938;11.396;2023-02-12T00:09:55;31.73;;;13.43;;
73296;SDS011;61524;50.938;11.396;2023-02-12T00:12:21;30.77;;;12.90;;
73296;SDS011;61524;50.938;11.396;2023-02-12T00:14:46;34.70;;;14.37;;
73296;SDS011;61524;50.938;11.396;2023-02-12T00:17:11;36.20;;;13.47;;
73296;SDS011;61524;50.938;11.396;2023-02-12T00:19:36;34.53;;;13.10;;
73296;SDS011;61524;50.938;11.396;2023-02-12T00:22:02;29.33;;;11.50;;
73296;SDS011;61524;50.938;11.396;2023-02-12T00:24:27;27.87;;;12.47;;
73296;SDS011;61524;50.938;11.396;2023-02-12T00:26:52;27.05;;;11.65;;
73296;SDS011;61524;50.938;11.396;2023-02-12T00:29:17;26.73;;;10.80;;
73296;SDS011;61524;50.938;11.396;2023-02-12T00:31:43;24.53;;;11.50;;
73296;SDS011;61524;50.938;11.396;2023-02-12T00:34:08;24.07;;;10.43;;
73296;SDS011;61524;50.938;11.396;2023-02-12T00:36:33;29.88;;;12.02;;
73296;SDS011;61524;50.938;11.396;2023-02-12T00:38:59;28.17;;;11.63;;
73296;SDS011;61524;50.938;11.396;2023-02-12T00:41:24;26.73;;;11.80;;
73296;SDS011;61524;50.938;11.396;2023-02-12T00:43:50;26.00;;;11.07;;
73296;SDS011;61524;50.938;11.396;2023-02-12T00:46:16;28.50;;;11.93;;
73296;SDS011;61524;50.938;11.396;2023-02-12T00:48:41;26.95;;;10.65;;
73296;SDS011;61524;50.938;11.396;2023-02-12T00:51:06;23.73;;;10.30;;
73296;SDS011;61524;50.938;11.396;2023-02-12T00:53:32;25.42;;;9.93;;
73296;SDS011;61524;50.938;11.396;2023-02-12T00:55:57;30.30;;;10.65;;
73296;SDS011;61524;50.938;11.396;2023-02-12T00:58:23;20.48;;;9.48;;
73296;SDS011;61524;50.938;11.396;2023-02-12T01:00:48;24.87;;;10.10;;
73296;SDS011;61524;50.938;11.396;2023-02-12T01:03:14;26.50;;;10.93;;
73296;SDS011;61524;50.938;11.396;2023-02-12T01:05:39;25.60;;;10.57;;
73296;SDS011;61524;50.938;11.396;2023-02-12T01:08:05;18.55;;;8.15;;
73296;SDS011;61524;50.938;11.396;2023-02-12T01:10:30;26.52;;;10.02;;
73296;SDS011;61524;50.938;11.396;2023-02-12T01:12:55;22.50;;;9.67;;
73296;SDS011;61524;50.938;11.396;2023-02-12T01:15:21;22.80;;;9.90;;
73296;SDS011;61524;50.938;11.396;2023-02-12T01:17:46;28.25;;;9.35;;
73296;SDS011;61524;50.938;11.396;2023-02-12T01:20:13;23.07;;;9.43;;
73296;SDS011;61524;50.938;11.396;2023-02-12T01:22:39;22.77;;;9.65;;
73296;SDS011;61524;50.938;11.396;2023-02-12T01:25:04;24.35;;;10.18;;
73296;SDS011;61524;50.938;11.396;2023-02-12T01:27:30;23.98;;;9.85;;
73296;SDS011;61524;50.938;11.396;2023-02-12T01:29:56;24.27;;;10.70;;
73296;SDS011;61524;50.938;11.396;2023-02-12T01:32:21;27.13;;;10.23;;
73296;SDS011;61524;50.938;11.396;2023-02-12T01:34:46;23.13;;;10.03;;
73296;SDS011;61524;50.938;11.396;2023-02-12T01:37:12;21.98;;;8.60;;
73296;SDS011;61524;50.938;11.396;2023-02-12T01:39:37;21.03;;;8.07;;
73296;SDS011;61524;50.938;11.396;2023-02-12T01:42:03;20.75;;;8.98;;
73296;SDS011;61524;50.938;11.396;2023-02-12T01:44:29;25.25;;;10.63;;
73296;SDS011;61524;50.938;11.396;2023-02-12T01:46:57;20.80;;;8.73;;
73296;SDS011;61524;50.938;11.396;2023-02-12T01:49:36;22.17;;;9.65;;
73296;SDS011;61524;50.938;11.396;2023-02-12T01:52:16;23.95;;;9.57;;
73296;SDS011;61524;50.938;11.396;2023-02-12T01:54:44;20.05;;;8.18;;
73296;SDS011;61524;50.938;11.396;2023-02-12T01:57:10;23.50;;;9.32;;
73296;SDS011;61524;50.938;11.396;2023-02-12T01:59:36;24.25;;;10.50;;
73296;SDS011;61524;50.938;11.396;2023-02-12T02:02:03;21.70;;;10.00;;
73296;SDS011;61524;50.938;11.396;2023-02-12T02:04:30;20.85;;;9.57;;
73296;SDS011;61524;50.938;11.396;2023-02-12T02:07:00;21.02;;;9.98;;
73296;SDS011;61524;50.938;11.396;2023-02-12T02:09:27;20.63;;;9.95;;
73296;SDS011;61524;50.938;11.396;2023-02-12T02:11:53;20.02;;;9.55;;
73296;SDS011;61524;50.938;11.396;2023-02-12T02:14:37;22.38;;;10.00;;
73296;SDS011;61524;50.938;11.396;2023-02-12T02:22:21;22.15;;;10.07;;
73296;SDS011;61524;50.938;11.396;2023-02-12T02:27:40;23.70;;;9.95;;
73296;SDS011;61524;50.938;11.396;2023-02-12T02:33:54;24.25;;;9.60;;
73296;SDS011;61524;50.938;11.396;2023-02-12T02:44:30;24.77;;;11.00;;
73296;SDS011;61524;50.938;11.396;2023-02-12T02:46:56;27.67;;;10.98;;
73296;SDS011;61524;50.938;11.396;2023-02-12T02:49:24;25.80;;;11.05;;
73296;SDS011;61524;50.938;11.396;2023-02-12T02:54:19;23.08;;;10.07;;
73296;SDS011;61524;50.938;11.396;2023-02-12T02:56:46;24.92;;;11.20;;
73296;SDS011;61524;50.938;11.396;2023-02-12T02:59:16;28.88;;;10.75;;
73296;SDS011;61524;50.938;11.396;2023-02-12T03:01:44;24.75;;;10.20;;
73296;SDS011;61524;50.938;11.396;2023-02-12T03:04:14;23.83;;;11.05;;
73296;SDS011;61524;50.938;11.396;2023-02-12T03:06:54;22.90;;;10.30;;
73296;SDS011;61524;50.938;11.396;2023-02-12T03:09:22;24.48;;;10.57;;
73296;SDS011;61524;50.938;11.396;2023-02-12T03:11:48;24.95;;;10.45;;
73296;SDS011;61524;50.938;11.396;2023-02-12T03:14:20;25.85;;;10.48;;
73296;SDS011;61524;50.938;11.396;2023-02-12T03:16:51;28.80;;;10.45;;
73296;SDS011;61524;50.938;11.396;2023-02-12T03:21:59;25.30;;;10.40;;
73296;SDS011;61524;50.938;11.396;2023-02-12T03:26:55;24.92;;;10.32;;
73296;SDS011;61524;50.938;11.396;2023-02-12T03:29:22;23.98;;;10.27;;
73296;SDS011;61524;50.938;11.396;2023-02-12T03:37:05;30.58;;;11.43;;
73296;SDS011;61524;50.938;11.396;2023-02-12T03:39:48;26.27;;;12.73;;
73296;SDS011;61524;50.938;11.396;2023-02-12T03:42:23;22.98;;;10.13;;
73296;SDS011;61524;50.938;11.396;2023-02-12T03:44:52;24.27;;;10.73;;
73296;SDS011;61524;50.938;11.396;2023-02-12T03:47:24;26.30;;;11.13;;
73296;SDS011;61524;50.938;11.396;2023-02-12T03:52:30;24.13;;;10.13;;
73296;SDS011;61524;50.938;11.396;2023-02-12T03:54:55;30.50;;;11.00;;
73296;SDS011;61524;50.938;11.396;2023-02-12T03:57:21;25.23;;;10.60;;
73296;SDS011;61524;50.938;11.396;2023-02-12T04:02:14;24.58;;;10.15;;
73296;SDS011;61524;50.938;11.396;2023-02-12T04:04:39;22.38;;;10.60;;
73296;SDS011;61524;50.938;11.396;2023-02-12T04:07:05;24.10;;;10.50;;
73296;SDS011;61524;50.938;11.396;2023-02-12T04:09:30;23.53;;;10.57;;
73296;SDS011;61524;50.938;11.396;2023-02-12T04:14:33;23.65;;;10.45;;
73296;SDS011;61524;50.938;11.396;2023-02-12T04:22:33;23.55;;;9.15;;
73296;SDS011;61524;50.938;11.396;2023-02-12T04:25:39;26.08;;;10.55;;
73296;SDS011;61524;50.938;11.396;2023-02-12T04:30:23;21.23;;;9.52;;
73296;SDS011;61524;50.938;11.396;2023-02-12T04:32:52;22.08;;;10.23;;
73296;SDS011;61524;50.938;11.396;2023-02-12T04:35:20;17.63;;;8.18;;
73296;SDS011;61524;50.938;11.396;2023-02-12T04:37:47;23.05;;;9.25;;
73296;SDS011;61524;50.938;11.396;2023-02-12T04:40:16;22.38;;;9.82;;
73296;SDS011;61524;50.938;11.396;2023-02-12T04:42:49;23.75;;;9.90;;
73296;SDS011;61524;50.938;11.396;2023-02-12T04:45:26;21.05;;;9.80;;
73296;SDS011;61524;50.938;11.396;2023-02-12T04:47:52;21.65;;;9.63;;
73296;SDS011;61524;50.938;11.396;2023-02-12T04:50:17;19.77;;;9.85;;
73296;SDS011;61524;50.938;11.396;2023-02-12T04:52:43;20.90;;;9.45;;
73296;SDS011;61524;50.938;11.396;2023-02-12T04:55:08;27.20;;;10.40;;
73296;SDS011;61524;50.938;11.396;2023-02-12T04:57:33;20.52;;;9.85;;
73296;SDS011;61524;50.938;11.396;2023-02-12T04:59:59;20.70;;;8.80;;
73296;SDS011;61524;50.938;11.396;2023-02-12T05:02:24;20.07;;;9.50;;
73296;SDS011;61524;50.938;11.396;2023-02-12T05:04:49;18.83;;;9.33;;
73296;SDS011;61524;50.938;11.396;2023-02-12T05:07:15;21.48;;;9.48;;
73296;SDS011;61524;50.938;11.396;2023-02-12T05:09:40;23.55;;;9.32;;
73296;SDS011;61524;50.938;11.396;2023-02-12T05:12:06;23.23;;;9.10;;
73296;SDS011;61524;50.938;11.396;2023-02-12T05:14:31;22.17;;;9.27;;
73296;SDS011;61524;50.938;11.396;2023-02-12T05:16:56;17.57;;;9.17;;
73296;SDS011;61524;50.938;11.396;2023-02-12T05:19:21;19.57;;;8.60;;
73296;SDS011;61524;50.938;11.396;2023-02-12T05:21:48;21.53;;;8.87;;
73296;SDS011;61524;50.938;11.396;2023-02-12T05:24:13;19.13;;;8.88;;
73296;SDS011;61524;50.938;11.396;2023-02-12T05:26:39;19.67;;;8.97;;
73296;SDS011;61524;50.938;11.396;2023-02-12T05:29:04;21.73;;;10.35;;
73296;SDS011;61524;50.938;11.396;2023-02-12T05:31:29;17.73;;;8.10;;
73296;SDS011;61524;50.938;11.396;2023-02-12T05:33:55;21.57;;;9.40;;
73296;SDS011;61524;50.938;11.396;2023-02-12T05:36:21;20.80;;;8.80;;
73296;SDS011;61524;50.938;11.396;2023-02-12T05:38:46;23.73;;;9.93;;
73296;SDS011;61524;50.938;11.396;2023-02-12T05:41:22;21.83;;;10.13;;
73296;SDS011;61524;50.938;11.396;2023-02-12T05:43:48;23.05;;;9.35;;
73296;SDS011;61524;50.938;11.396;2023-02-12T05:46:13;20.83;;;9.27;;
73296;SDS011;61524;50.938;11.396;2023-02-12T05:48:39;28.93;;;10.10;;
73296;SDS011;61524;50.938;11.396;2023-02-12T05:51:05;22.05;;;10.68;;
73296;SDS011;61524;50.938;11.396;2023-02-12T05:53:31;20.10;;;10.25;;
73296;SDS011;61524;50.938;11.396;2023-02-12T05:58:55;20.52;;;9.35;;
73296;SDS011;61524;50.938;11.396;2023-02-12T06:01:22;19.63;;;9.43;;
73296;SDS011;61524;50.938;11.396;2023-02-12T06:03:47;23.33;;;10.20;;
73296;SDS011;61524;50.938;11.396;2023-02-12T06:06:13;18.23;;;9.23;;
73296;SDS011;61524;50.938;11.396;2023-02-12T06:08:38;21.80;;;10.53;;
73296;SDS011;61524;50.938;11.396;2023-02-12T06:11:05;23.53;;;10.43;;
73296;SDS011;61524;50.938;11.396;2023-02-12T06:13:30;23.10;;;10.77;;
73296;SDS011;61524;50.938;11.396;2023-02-12T06:15:55;21.48;;;10.55;;
73296;SDS011;61524;50.938;11.396;2023-02-12T06:18:21;21.55;;;9.98;;
73296;SDS011;61524;50.938;11.396;2023-02-12T06:20:46;21.27;;;10.77;;
73296;SDS011;61524;50.938;11.396;2023-02-12T06:23:12;22.65;;;10.52;;
73296;SDS011;61524;50.938;11.396;2023-02-12T06:25:37;25.63;;;10.87;;
73296;SDS011;61524;50.938;11.396;2023-02-12T06:28:02;21.33;;;10.57;;
73296;SDS011;61524;50.938;11.396;2023-02-12T06:30:28;24.20;;;11.38;;
73296;SDS011;61524;50.938;11.396;2023-02-12T06:32:53;22.77;;;10.13;;
73296;SDS011;61524;50.938;11.396;2023-02-12T06:35:18;17.97;;;9.03;;
73296;SDS011;61524;50.938;11.396;2023-02-12T06:37:43;14.43;;;6.63;;
73296;SDS011;61524;50.938;11.396;2023-02-12T06:40:09;17.27;;;7.97;;
73296;SDS011;61524;50.938;11.396;2023-02-12T06:42:34;20.30;;;9.68;;
73296;SDS011;61524;50.938;11.396;2023-02-12T06:44:59;18.85;;;8.93;;
73296;SDS011;61524;50.938;11.396;2023-02-12T06:47:25;20.95;;;9.85;;
73296;SDS011;61524;50.938;11.396;2023-02-12T06:49:51;19.55;;;9.43;;
73296;SDS011;61524;50.938;11.396;2023-02-12T06:52:16;18.47;;;9.70;;
73296;SDS011;61524;50.938;11.396;2023-02-12T06:54:41;24.27;;;9.17;;
73296;SDS011;61524;50.938;11.396;2023-02-12T06:57:06;22.67;;;9.63;;
73296;SDS011;61524;50.938;11.396;2023-02-12T06:59:32;19.23;;;9.57;;
73296;SDS011;61524;50.938;11.396;2023-02-12T07:01:57;21.27;;;9.60;;
73296;SDS011;61524;50.938;11.396;2023-02-12T07:04:22;25.20;;;10.17;;
73296;SDS011;61524;50.938;11.396;2023-02-12T07:06:48;20.00;;;9.57;;
73296;SDS011;61524;50.938;11.396;2023-02-12T07:09:13;20.90;;;9.33;;
73296;SDS011;61524;50.938;11.396;2023-02-12T07:11:38;20.67;;;9.60;;
73296;SDS011;61524;50.938;11.396;2023-02-12T07:14:04;19.50;;;9.15;;
73296;SDS011;61524;50.938;11.396;2023-02-12T07:16:29;20.13;;;10.07;;
73296;SDS011;61524;50.938;11.396;2023-02-12T07:18:54;22.20;;;9.63;;
73296;SDS011;61524;50.938;11.396;2023-02-12T07:21:20;21.47;;;9.73;;
73296;SDS011;61524;50.938;11.396;2023-02-12T07:23:49;20.77;;;9.45;;
73296;SDS011;61524;50.938;11.396;2023-02-12T07:26:14;24.33;;;11.18;;
73296;SDS011;61524;50.938;11.396;2023-02-12T07:28:40;20.60;;;9.40;;
73296;SDS011;61524;50.938;11.396;2023-02-12T07:31:11;26.42;;;11.23;;
73296;SDS011;61524;50.938;11.396;2023-02-12T07:33:37;21.35;;;10.77;;
73296;SDS011;61524;50.938;11.396;2023-02-12T07:36:03;22.33;;;10.95;;
73296;SDS011;61524;50.938;11.396;2023-02-12T07:38:29;20.60;;;9.35;;
73296;SDS011;61524;50.938;11.396;2023-02-12T07:40:54;26.73;;;11.23;;
73296;SDS011;61524;50.938;11.396;2023-02-12T07:43:22;24.17;;;10.55;;
73296;SDS011;61524;50.938;11.396;2023-02-12T07:45:48;24.48;;;11.23;;
73296;SDS011;61524;50.938;11.396;2023-02-12T07:48:13;23.00;;;10.70;;
73296;SDS011;61524;50.938;11.396;2023-02-12T07:50:38;21.43;;;10.80;;
73296;SDS011;61524;50.938;11.396;2023-02-12T07:53:03;26.38;;;11.35;;
73296;SDS011;61524;50.938;11.396;2023-02-12T07:55:29;24.17;;;11.67;;
73296;SDS011;61524;50.938;11.396;2023-02-12T07:57:54;22.03;;;10.33;;
73296;SDS011;61524;50.938;11.396;2023-02-12T08:00:19;23.40;;;10.27;;
73296;SDS011;61524;50.938;11.396;2023-02-12T08:02:49;22.10;;;10.77;;
73296;SDS011;61524;50.938;11.396;2023-02-12T08:05:15;22.35;;;10.80;;
73296;SDS011;61524;50.938;11.396;2023-02-12T08:07:40;22.67;;;10.98;;
73296;SDS011;61524;50.938;11.396;2023-02-12T08:10:06;24.17;;;10.73;;
73296;SDS011;61524;50.938;11.396;2023-02-12T08:12:31;22.73;;;10.68;;
73296;SDS011;61524;50.938;11.396;2023-02-12T08:14:56;19.43;;;10.50;;
73296;SDS011;61524;50.938;11.396;2023-02-12T08:17:22;22.95;;;10.23;;
73296;SDS011;61524;50.938;11.396;2023-02-12T08:19:47;21.77;;;10.00;;
73296;SDS011;61524;50.938;11.396;2023-02-12T08:22:12;20.63;;;9.97;;
73296;SDS011;61524;50.938;11.396;2023-02-12T08:24:37;19.10;;;9.67;;
73296;SDS011;61524;50.938;11.396;2023-02-12T08:27:03;20.60;;;10.17;;
73296;SDS011;61524;50.938;11.396;2023-02-12T08:29:29;19.58;;;10.02;;
73296;SDS011;61524;50.938;11.396;2023-02-12T08:31:58;18.00;;;9.52;;
73296;SDS011;61524;50.938;11.396;2023-02-12T08:34:25;21.67;;;10.55;;
73296;SDS011;61524;50.938;11.396;2023-02-12T08:36:51;21.88;;;11.43;;
73296;SDS011;61524;50.938;11.396;2023-02-12T08:39:18;20.38;;;10.43;;
73296;SDS011;61524;50.938;11.396;2023-02-12T08:41:43;23.58;;;11.43;;
73296;SDS011;61524;50.938;11.396;2023-02-12T08:44:09;22.23;;;10.73;;
73296;SDS011;61524;50.938;11.396;2023-02-12T08:46:35;20.80;;;10.40;;
73296;SDS011;61524;50.938;11.396;2023-02-12T08:49:02;22.02;;;11.30;;
73296;SDS011;61524;50.938;11.396;2023-02-12T08:51:29;19.23;;;9.98;;
73296;SDS011;61524;50.938;11.396;2023-02-12T08:53:56;19.77;;;9.57;;
73296;SDS011;61524;50.938;11.396;2023-02-12T08:56:22;21.08;;;11.30;;
73296;SDS011;61524;50.938;11.396;2023-02-12T08:58:47;21.15;;;11.20;;
73296;SDS011;61524;50.938;11.396;2023-02-12T09:01:14;20.60;;;9.85;;
73296;SDS011;61524;50.938;11.396;2023-02-12T09:03:40;20.50;;;11.63;;
73296;SDS011;61524;50.938;11.396;2023-02-12T09:06:05;21.83;;;12.05;;
73296;SDS011;61524;50.938;11.396;2023-02-12T09:08:31;23.95;;;11.30;;
73296;SDS011;61524;50.938;11.396;2023-02-12T09:10:57;23.05;;;10.32;;
73296;SDS011;61524;50.938;11.396;2023-02-12T09:13:22;20.65;;;10.77;;
73296;SDS011;61524;50.938;11.396;2023-02-12T09:15:47;23.90;;;10.83;;
73296;SDS011;61524;50.938;11.396;2023-02-12T09:18:13;21.80;;;10.20;;
73296;SDS011;61524;50.938;11.396;2023-02-12T09:20:39;22.05;;;10.88;;
73296;SDS011;61524;50.938;11.396;2023-02-12T09:23:05;20.25;;;8.77;;
73296;SDS011;61524;50.938;11.396;2023-02-12T09:25:31;21.70;;;9.48;;
73296;SDS011;61524;50.938;11.396;2023-02-12T09:27:58;22.83;;;10.15;;
73296;SDS011;61524;50.938;11.396;2023-02-12T09:30:24;21.60;;;10.07;;
73296;SDS011;61524;50.938;11.396;2023-02-12T09:32:49;22.50;;;9.13;;
73296;SDS011;61524;50.938;11.396;2023-02-12T09:35:14;22.80;;;11.13;;
73296;SDS011;61524;50.938;11.396;2023-02-12T09:37:39;23.40;;;10.43;;
73296;SDS011;61524;50.938;11.396;2023-02-12T09:40:06;24.25;;;10.20;;
73296;SDS011;61524;50.938;11.396;2023-02-12T09:42:50;24.52;;;10.68;;
73296;SDS011;61524;50.938;11.396;2023-02-12T09:45:19;19.33;;;9.13;;
73296;SDS011;61524;50.938;11.396;2023-02-12T09:47:48;23.92;;;9.93;;
73296;SDS011;61524;50.938;11.396;2023-02-12T09:53:00;19.80;;;8.88;;
73296;SDS011;61524;50.938;11.396;2023-02-12T09:55:29;21.77;;;9.98;;
73296;SDS011;61524;50.938;11.396;2023-02-12T09:57:55;24.77;;;11.88;;
73296;SDS011;61524;50.938;11.396;2023-02-12T10:00:21;20.10;;;9.07;;
73296;SDS011;61524;50.938;11.396;2023-02-12T10:02:49;24.90;;;10.45;;
73296;SDS011;61524;50.938;11.396;2023-02-12T10:05:28;20.92;;;9.15;;
73296;SDS011;61524;50.938;11.396;2023-02-12T10:08:14;22.27;;;9.75;;
73296;SDS011;61524;50.938;11.396;2023-02-12T10:11:11;22.90;;;9.32;;
73296;SDS011;61524;50.938;11.396;2023-02-12T10:19:37;19.80;;;9.38;;
73296;SDS011;61524;50.938;11.396;2023-02-12T10:24:19;20.17;;;9.40;;
73296;SDS011;61524;50.938;11.396;2023-02-12T10:26:46;19.92;;;9.27;;
73296;SDS011;61524;50.938;11.396;2023-02-12T10:31:41;18.90;;;9.97;;
73296;SDS011;61524;50.938;11.396;2023-02-12T10:34:17;21.42;;;10.40;;
73296;SDS011;61524;50.938;11.396;2023-02-12T10:36:47;19.40;;;9.63;;
73296;SDS011;61524;50.938;11.396;2023-02-12T10:44:29;21.27;;;10.25;;
73296;SDS011;61524;50.938;11.396;2023-02-12T10:46:55;18.63;;;9.00;;
73296;SDS011;61524;50.938;11.396;2023-02-12T10:49:20;17.87;;;8.97;;
73296;SDS011;61524;50.938;11.396;2023-02-12T10:51:55;17.17;;;8.02;;
73296;SDS011;61524;50.938;11.396;2023-02-12T10:54:54;14.68;;;7.30;;
73296;SDS011;61524;50.938;11.396;2023-02-12T10:57:14;15.80;;;6.72;;
73296;SDS011;61524;50.938;11.396;2023-02-12T10:59:41;14.40;;;7.22;;
73296;SDS011;61524;50.938;11.396;2023-02-12T11:02:17;14.32;;;7.22;;
73296;SDS011;61524;50.938;11.396;2023-02-12T11:04:43;13.20;;;6.25;;
73296;SDS011;61524;50.938;11.396;2023-02-12T11:07:08;12.23;;;6.17;;
73296;SDS011;61524;50.938;11.396;2023-02-12T11:09:41;17.20;;;8.90;;
73296;SDS011;61524;50.938;11.396;2023-02-12T11:12:24;18.48;;;8.18;;
73296;SDS011;61524;50.938;11.396;2023-02-12T11:14:52;19.00;;;8.95;;
73296;SDS011;61524;50.938;11.396;2023-02-12T11:17:40;19.00;;;8.90;;
73296;SDS011;61524;50.938;11.396;2023-02-12T11:22:29;19.00;;;9.17;;
73296;SDS011;61524;50.938;11.396;2023-02-12T11:25:03;22.17;;;10.95;;
73296;SDS011;61524;50.938;11.396;2023-02-12T11:27:32;20.98;;;8.93;;
73296;SDS011;61524;50.938;11.396;2023-02-12T11:32:29;18.15;;;9.18;;
73296;SDS011;61524;50.938;11.396;2023-02-12T11:35:04;16.57;;;7.13;;
73296;SDS011;61524;50.938;11.396;2023-02-12T11:37:30;17.33;;;7.70;;
73296;SDS011;61524;50.938;11.396;2023-02-12T11:39:57;15.13;;;7.20;;
73296;SDS011;61524;50.938;11.396;2023-02-12T11:42:23;22.17;;;10.10;;
73296;SDS011;61524;50.938;11.396;2023-02-12T11:44:51;17.48;;;8.43;;
73296;SDS011;61524;50.938;11.396;2023-02-12T11:47:21;17.85;;;7.82;;
73296;SDS011;61524;50.938;11.396;2023-02-12T11:49:48;17.88;;;8.10;;
73296;SDS011;61524;50.938;11.396;2023-02-12T11:52:34;16.65;;;9.02;;
73296;SDS011;61524;50.938;11.396;2023-02-12T11:55:05;16.42;;;8.60;;
73296;SDS011;61524;50.938;11.396;2023-02-12T12:00:45;18.48;;;8.55;;
73296;SDS011;61524;50.938;11.396;2023-02-12T12:05:28;16.42;;;8.15;;
73296;SDS011;61524;50.938;11.396;2023-02-12T12:07:56;15.98;;;6.10;;
73296;SDS011;61524;50.938;11.396;2023-02-12T12:10:40;16.55;;;7.45;;
73296;SDS011;61524;50.938;11.396;2023-02-12T12:13:12;14.15;;;7.57;;
73296;SDS011;61524;50.938;11.396;2023-02-12T12:15:44;17.42;;;7.85;;
73296;SDS011;61524;50.938;11.396;2023-02-12T12:21:31;16.20;;;6.93;;
73296;SDS011;61524;50.938;11.396;2023-02-12T12:26:27;17.98;;;7.75;;
73296;SDS011;61524;50.938;11.396;2023-02-12T12:29:02;17.77;;;8.38;;
73296;SDS011;61524;50.938;11.396;2023-02-12T12:31:32;19.83;;;8.45;;
73296;SDS011;61524;50.938;11.396;2023-02-12T12:38:55;17.58;;;8.45;;
73296;SDS011;61524;50.938;11.396;2023-02-12T12:54:11;19.10;;;8.60;;
73296;SDS011;61524;50.938;11.396;2023-02-12T12:59:23;16.53;;;8.37;;
73296;SDS011;61524;50.938;11.396;2023-02-12T13:07:42;18.85;;;8.43;;
73296;SDS011;61524;50.938;11.396;2023-02-12T13:17:50;20.65;;;9.70;;
73296;SDS011;61524;50.938;11.396;2023-02-12T13:23:06;18.30;;;9.02;;
73296;SDS011;61524;50.938;11.396;2023-02-12T13:28:13;15.02;;;6.85;;
73296;SDS011;61524;50.938;11.396;2023-02-12T13:30:43;19.92;;;7.90;;
73296;SDS011;61524;50.938;11.396;2023-02-12T13:33:11;16.30;;;6.45;;
73296;SDS011;61524;50.938;11.396;2023-02-12T13:35:41;13.50;;;5.13;;
73296;SDS011;61524;50.938;11.396;2023-02-12T13:38:07;14.15;;;6.43;;
73296;SDS011;61524;50.938;11.396;2023-02-12T13:40:33;12.05;;;6.50;;
73296;SDS011;61524;50.938;11.396;2023-02-12T13:45:46;13.65;;;6.65;;
73296;SDS011;61524;50.938;11.396;2023-02-12T13:58:52;15.40;;;7.60;;
73296;SDS011;61524;50.938;11.396;2023-02-12T14:01:34;14.40;;;7.03;;
73296;SDS011;61524;50.938;11.396;2023-02-12T14:06:53;15.02;;;7.35;;
73296;SDS011;61524;50.938;11.396;2023-02-12T14:09:20;13.73;;;6.22;;
73296;SDS011;61524;50.938;11.396;2023-02-12T14:11:49;11.50;;;6.15;;
73296;SDS011;61524;50.938;11.396;2023-02-12T14:14:25;13.32;;;5.97;;
73296;SDS011;61524;50.938;11.396;2023-02-12T14:16:51;15.43;;;6.53;;
73296;SDS011;61524;50.938;11.396;2023-02-12T14:22:00;11.70;;;5.63;;
73296;SDS011;61524;50.938;11.396;2023-02-12T14:27:02;11.52;;;5.40;;
73296;SDS011;61524;50.938;11.396;2023-02-12T14:29:28;11.65;;;5.18;;
73296;SDS011;61524;50.938;11.396;2023-02-12T14:31:53;10.63;;;4.70;;
73296;SDS011;61524;50.938;11.396;2023-02-12T14:36:46;8.77;;;4.37;;
73296;SDS011;61524;50.938;11.396;2023-02-12T14:41:45;9.77;;;5.43;;
73296;SDS011;61524;50.938;11.396;2023-02-12T14:44:35;13.32;;;5.10;;
73296;SDS011;61524;50.938;11.396;2023-02-12T14:49:28;10.02;;;5.18;;
73296;SDS011;61524;50.938;11.396;2023-02-12T14:54:29;12.73;;;5.65;;
73296;SDS011;61524;50.938;11.396;2023-02-12T14:56:55;11.73;;;5.18;;
73296;SDS011;61524;50.938;11.396;2023-02-12T14:59:23;15.38;;;6.00;;
73296;SDS011;61524;50.938;11.396;2023-02-12T15:01:49;13.07;;;6.38;;
73296;SDS011;61524;50.938;11.396;2023-02-12T15:04:16;12.20;;;5.80;;
73296;SDS011;61524;50.938;11.396;2023-02-12T15:06:51;11.10;;;5.20;;
73296;SDS011;61524;50.938;11.396;2023-02-12T15:09:20;12.93;;;6.45;;
73296;SDS011;61524;50.938;11.396;2023-02-12T15:11:51;10.05;;;4.82;;
73296;SDS011;61524;50.938;11.396;2023-02-12T15:14:20;12.57;;;5.80;;
73296;SDS011;61524;50.938;11.396;2023-02-12T15:21:55;11.48;;;5.85;;
73296;SDS011;61524;50.938;11.396;2023-02-12T15:24:22;10.77;;;5.45;;
73296;SDS011;61524;50.938;11.396;2023-02-12T15:26:48;12.50;;;5.55;;
73296;SDS011;61524;50.938;11.396;2023-02-12T15:29:27;12.48;;;5.45;;
73296;SDS011;61524;50.938;11.396;2023-02-12T15:31:54;13.10;;;5.55;;
73296;SDS011;61524;50.938;11.396;2023-02-12T15:34:21;12.63;;;6.18;;
73296;SDS011;61524;50.938;11.396;2023-02-12T15:39:14;13.07;;;5.90;;
73296;SDS011;61524;50.938;11.396;2023-02-12T15:41:41;13.77;;;6.70;;
73296;SDS011;61524;50.938;11.396;2023-02-12T15:44:24;11.85;;;5.93;;
73296;SDS011;61524;50.938;11.396;2023-02-12T15:46:53;15.73;;;6.22;;
73296;SDS011;61524;50.938;11.396;2023-02-12T15:49:19;11.35;;;5.65;;
73296;SDS011;61524;50.938;11.396;2023-02-12T15:54:11;10.52;;;4.80;;
73296;SDS011;61524;50.938;11.396;2023-02-12T15:56:40;9.75;;;4.82;;
73296;SDS011;61524;50.938;11.396;2023-02-12T15:59:05;11.27;;;5.77;;
73296;SDS011;61524;50.938;11.396;2023-02-12T16:01:32;12.70;;;5.23;;
73296;SDS011;61524;50.938;11.396;2023-02-12T16:04:01;14.00;;;6.55;;
73296;SDS011;61524;50.938;11.396;2023-02-12T16:06:27;11.00;;;4.82;;
73296;SDS011;61524;50.938;11.396;2023-02-12T16:09:15;12.25;;;5.43;;
73296;SDS011;61524;50.938;11.396;2023-02-12T16:11:38;11.18;;;5.28;;
73296;SDS011;61524;50.938;11.396;2023-02-12T16:14:07;10.88;;;5.13;;
73296;SDS011;61524;50.938;11.396;2023-02-12T16:16:45;18.00;;;8.55;;
73296;SDS011;61524;50.938;11.396;2023-02-12T16:19:20;18.05;;;7.93;;
73296;SDS011;61524;50.938;11.396;2023-02-12T16:21:50;11.98;;;6.45;;
73296;SDS011;61524;50.938;11.396;2023-02-12T16:24:24;12.73;;;5.93;;
73296;SDS011;61524;50.938;11.396;2023-02-12T16:26:50;10.80;;;5.95;;
73296;SDS011;61524;50.938;11.396;2023-02-12T16:29:16;12.07;;;5.60;;
73296;SDS011;61524;50.938;11.396;2023-02-12T16:31:58;13.02;;;6.43;;
73296;SDS011;61524;50.938;11.396;2023-02-12T16:34:34;9.48;;;4.63;;
73296;SDS011;61524;50.938;11.396;2023-02-12T16:37:00;9.30;;;5.47;;
73296;SDS011;61524;50.938;11.396;2023-02-12T16:42:14;10.68;;;5.20;;
73296;SDS011;61524;50.938;11.396;2023-02-12T16:44:39;10.82;;;4.53;;
73296;SDS011;61524;50.938;11.396;2023-02-12T16:47:04;10.47;;;4.83;;
73296;SDS011;61524;50.938;11.396;2023-02-12T16:49:30;10.80;;;5.18;;
73296;SDS011;61524;50.938;11.396;2023-02-12T16:52:17;10.23;;;4.77;;
73296;SDS011;61524;50.938;11.396;2023-02-12T16:54:42;10.82;;;5.07;;
73296;SDS011;61524;50.938;11.396;2023-02-12T16:57:08;8.80;;;4.43;;
73296;SDS011;61524;50.938;11.396;2023-02-12T16:59:34;12.13;;;4.88;;
73296;SDS011;61524;50.938;11.396;2023-02-12T17:02:08;11.48;;;5.22;;
73296;SDS011;61524;50.938;11.396;2023-02-12T17:04:34;20.30;;;8.77;;
73296;SDS011;61524;50.938;11.396;2023-02-12T17:06:59;14.30;;;6.60;;
73296;SDS011;61524;50.938;11.396;2023-02-12T17:09:25;10.20;;;5.13;;